Terminal Aerodrome Forecast
Issued by NWS Cleveland, OH

Home | Current Version | Previous Version | Graphics & Text | Print | Product List | Glossary On
Versions: 1 2 3 4 5 6 7 8 9 10 11 12
000
FTUS41 KCLE 161130
TAFCAK
TAF
KCAK 161130Z 1612/1712 32009KT P6SM SCT030
      TEMPO 1612/1616 BKN030
     FM161600 32010KT P6SM BKN040
     FM162200 33007KT P6SM SCT050
     FM170300 20003KT P6SM SKC=

USA.gov is the U.S. government's official web portal to all federal, state and local government web resources and services.